Latest Weather Observations for Launceston Airport

IDT60801

Issued at 7:31 am EDT Sunday 1 March 2015 (issued every 30 minutes, with the page automatically refreshed every 10 minutes)

About weather observations | Map of weather stations | Latest weather observations for TAS | Other Formats
Station Details ID: 091311 Name: LAUNCESTON AIRPORT Lat: -41.55 Lon: 147.21 Height: 166.9 m
Data from the previous 72 hours. | See also: Recent months at Launceston Airport
Date/Time
EDT
Temp
°C
App
Temp
°C
Dew
Point
Rel
Hum
%
Delta-T
°C
Wind Press
QNH
hPa
Press
MSL
hPa
Rain
since 9 am
mm
Dir
 
Spd
km/h
Gust
km/h
Spd
kts
Gust
kts
01/07:30am 9.8 9.5 8.7 93 0.5 CALM 0 0 0 0 1004.5 1004.1 3.2
01/07:00am 9.1 5.8 7.9 92 0.6 NNW 15 17 8 9 1003.7 1003.3 3.2
01/06:30am 10.7 9.6 9.8 94 0.5 NNW 6 9 3 5 1003.1 1002.7 3.2
01/05:30am 9.6 7.1 8.4 92 0.6 NNW 11 13 6 7 1001.8 1001.4 3.2
01/05:00am 9.6 6.6 7.9 89 0.8 NW 13 17 7 9 1001.7 1001.3 3.2
01/04:30am 10.6 8.9 8.4 86 1.1 NNW 7 9 4 5 1001.6 1001.1 3.2
01/04:00am 12.5 9.4 10.2 86 1.2 WNW 17 20 9 11 1001.4 1000.9 3.2
01/03:30am 12.3 9.6 10.2 87 1.1 NW 15 19 8 10 1001.4 1000.9 3.2
01/03:19am 13.2 10.6 12.1 93 0.6 NW 17 20 9 11 1001.4 1000.9 3.2
01/03:07am 12.9 10.7 12.1 95 0.4 NW 15 19 8 10 1001.4 1000.9 3.2
01/03:00am 12.7 10.8 11.9 95 0.4 NW 13 15 7 8 1001.4 1000.9 3.2
01/02:50am 13.6 12.0 12.8 95 0.4 NNW 13 15 7 8 1001.4 1000.9 3.2
01/02:42am 13.9 12.4 13.1 95 0.4 NNW 13 15 7 8 1001.4 1000.9 3.2
01/02:30am 14.1 12.7 13.3 95 0.4 NNW 13 19 7 10 1001.4 1000.9 3.2
01/02:00am 15.2 13.4 14.4 95 0.5 NNW 17 19 9 10 1001.4 1000.9 3.2
01/01:48am 15.6 13.9 14.8 95 0.5 NNW 17 22 9 12 1001.6 1001.1 3.2
01/01:30am 16.2 14.2 15.4 95 0.5 NNW 20 26 11 14 1001.6 1001.1 3.2
01/01:00am 16.4 14.1 15.6 95 0.5 NNW 22 30 12 16 1001.5 1001.0 3.2
01/12:30am 16.8 13.9 16.0 95 0.5 NNW 26 33 14 18 1001.4 1000.9 3.2
 
Date/Time
EDT
Temp
°C
App
Temp
°C
Dew
Point
Rel
Hum
%
Delta-T
°C
Wind Press
QNH
hPa
Press
MSL
hPa
Rain
since 9 am
mm
Dir
 
Spd
km/h
Gust
km/h
Spd
kts
Gust
kts
28/11:30pm 17.0 13.4 16.2 95 0.5 NNW 30 41 16 22 1001.6 1001.1 3.2
28/11:00pm 17.2 14.0 16.2 94 0.6 NNW 28 43 15 23 1001.8 1001.4 2.8
28/10:32pm 17.2 14.3 16.2 94 0.6 NNW 26 35 14 19 1001.3 1000.8 2.8
28/10:30pm 17.2 13.9 16.1 93 0.7 NNW 28 35 15 19 1001.5 1001.0 2.8
28/10:15pm 17.4 13.7 16.1 92 0.8 NNW 30 41 16 22 1001.5 1001.0 2.6
28/10:00pm 17.3 14.4 16.0 92 0.8 NNW 26 35 14 19 1001.7 1001.3 2.6
28/09:30pm 17.2 13.8 15.9 92 0.8 NNW 28 35 15 19 1001.0 1000.5 2.6
28/09:00pm 17.3 14.4 16.0 92 0.8 N 26 33 14 18 1000.6 1000.1 2.6
28/08:52pm 17.2 13.9 16.1 93 0.7 N 28 37 15 20 1000.5 1000.0 2.6
28/08:30pm 17.5 14.5 15.8 90 1.0 NNW 26 35 14 19 1001.0 1000.5 2.4
28/08:00pm 18.4 14.9 15.6 84 1.7 NNW 28 39 15 21 1000.9 1000.4 1.2
28/07:55pm 18.4 14.9 15.6 84 1.7 NNW 28 37 15 20 1000.7 1000.2 1.2
28/07:30pm 18.4 14.5 15.6 84 1.7 NNW 30 41 16 22 1000.4 999.9 1.2
28/07:16pm 18.6 15.3 16.0 85 1.6 NNW 28 35 15 19 1000.3 999.8 1.2
28/07:00pm 18.5 15.2 16.1 86 1.4 NNW 28 37 15 20 1000.3 999.8 1.2
28/06:52pm 18.4 14.4 16.2 87 1.3 NNW 32 39 17 21 1000.5 1000.0 1.2
28/06:30pm 18.4 14.4 16.2 87 1.3 NNW 32 43 17 23 1000.7 1000.2 1.2
28/06:00pm 18.4 15.2 16.4 88 1.2 NNW 28 39 15 21 1001.0 1000.5 1.2
28/05:30pm 17.8 14.1 16.1 90 1.0 NNW 30 41 16 22 1001.3 1000.8 1.2
28/05:00pm 17.4 14.9 16.1 92 0.8 NNW 24 33 13 18 1001.5 1001.0 1.2
28/04:30pm 17.2 13.7 15.5 90 1.0 NNW 28 41 15 22 1001.7 1001.3 1.2
28/04:00pm 17.4 15.8 15.9 91 0.9 NNW 19 26 10 14 1002.2 1001.8 1.2
28/03:30pm 16.7 13.7 14.9 89 1.0 NNW 24 32 13 17 1002.7 1002.3 1.2
28/03:23pm 16.7 14.5 14.9 89 1.0 NNW 20 32 11 17 1002.9 1002.5 1.2
28/03:03pm 16.5 14.7 14.5 88 1.2 NNW 17 22 9 12 1003.1 1002.7 0.8
28/03:00pm 16.5 14.7 14.5 88 1.2 NW 17 22 9 12 1003.2 1002.8 0.4
28/02:32pm 16.2 13.7 14.2 88 1.1 NNW 20 30 11 16 1003.7 1003.3 0.2
28/02:30pm 16.1 12.8 13.9 87 1.3 NW 24 32 13 17 1003.8 1003.4 0.2
28/02:00pm 16.8 12.4 12.9 78 2.2 NNW 28 35 15 19 1004.1 1003.7 0.0
28/01:30pm 17.4 13.2 12.3 72 2.8 NW 26 33 14 18 1004.4 1004.0 0.0
28/01:00pm 16.9 12.6 12.0 73 2.7 NW 26 33 14 18 1004.8 1004.4 0.0
28/12:30pm 17.4 12.7 11.9 70 3.0 NNW 28 35 15 19 1005.1 1004.7 0.0
28/12:00pm 17.9 12.7 11.5 66 3.5 NNW 30 39 16 21 1005.2 1004.8 0.0
28/11:30am 18.0 13.0 11.1 64 3.8 NW 28 35 15 19 1005.9 1005.4 0.0
28/11:00am 17.2 13.0 11.0 67 3.4 NNW 24 32 13 17 1006.1 1005.6 0.0
28/10:30am 16.1 11.8 10.6 70 2.9 NW 24 32 13 17 1006.5 1006.0 0.0
28/10:00am 15.8 13.2 10.8 72 2.7 NNW 15 20 8 11 1006.7 1006.2 0.0
28/09:30am 14.8 13.1 9.8 72 2.6 N 9 15 5 8 1006.9 1006.5 0.0
28/09:00am 14.9 13.6 9.9 72 2.6 NW 7 11 4 6 1007.1 1006.7 0.0
28/08:30am 12.7 12.3 9.7 82 1.5 WSW 2 6 1 3 1007.2 1006.8 0.0
28/08:00am 9.9 9.1 8.3 90 0.8 S 2 7 1 4 1006.9 1006.5 0.0
28/07:30am 9.7 8.5 8.1 90 0.8 E 4 7 2 4 1007.3 1006.9 0.0
28/07:00am 8.3 6.8 6.8 90 0.7 N 4 9 2 5 1007.6 1007.2 0.0
28/06:30am 8.7 6.7 7.0 89 0.8 NW 7 9 4 5 1007.8 1007.4 0.0
28/06:00am 10.1 8.5 7.9 86 1.1 SSW 6 9 3 5 1007.7 1007.3 0.0
28/05:30am 9.6 6.9 7.5 87 1.0 SSW 11 13 6 7 1007.8 1007.4 0.0
28/05:00am 9.3 7.0 7.3 87 1.0 S 9 11 5 6 1007.7 1007.3 0.0
28/04:30am 9.7 7.8 7.5 86 1.1 S 7 11 4 6 1008.2 1007.8 0.0
28/04:00am 10.2 7.6 7.8 85 1.2 SSE 11 17 6 9 1008.4 1008.0 0.0
28/03:30am 10.7 7.8 8.3 85 1.2 S 13 17 7 9 1008.8 1008.4 0.0
28/03:00am 10.5 8.0 8.3 86 1.1 S 11 13 6 7 1009.2 1008.8 0.0
28/02:30am 10.4 7.9 8.0 85 1.2 S 11 13 6 7 1009.4 1009.0 0.0
28/02:00am 10.3 7.7 7.7 84 1.3 SE 11 13 6 7 1009.5 1009.1 0.0
28/01:30am 11.0 8.5 8.0 82 1.5 SSE 11 15 6 8 1009.7 1009.3 0.0
28/01:00am 10.8 7.9 8.0 83 1.4 SSE 13 15 7 8 1009.9 1009.5 0.0
28/12:30am 10.8 7.5 8.2 84 1.3 SE 15 19 8 10 1009.7 1009.3 0.0
28/12:00am 10.1 7.8 7.5 84 1.3 SE 9 11 5 6 1009.8 1009.4 0.0
 
Date/Time
EDT
Temp
°C
App
Temp
°C
Dew
Point
Rel
Hum
%
Delta-T
°C
Wind Press
QNH
hPa
Press
MSL
hPa
Rain
since 9 am
mm
Dir
 
Spd
km/h
Gust
km/h
Spd
kts
Gust
kts
27/11:30pm 10.8 7.4 7.7 81 1.5 SSE 15 17 8 9 1010.1 1009.7 0.0
27/11:00pm 10.5 7.8 7.4 81 1.5 S 11 15 6 8 1010.2 1009.8 0.0
27/10:30pm 11.2 9.6 7.9 80 1.6 SSE 6 9 3 5 1010.1 1009.7 0.0
27/10:00pm 12.3 11.2 8.4 77 2.0 N 4 7 2 4 1009.9 1009.5 0.0
27/09:30pm 12.8 12.5 8.5 75 2.2 CALM 0 0 0 0 1009.6 1009.2 0.0
27/09:00pm 12.9 11.3 8.6 75 2.2 N 7 9 4 5 1009.2 1008.8 0.0
27/08:30pm 13.4 11.4 8.7 73 2.4 NNW 9 11 5 6 1008.9 1008.5 0.0
27/08:00pm 13.2 10.7 8.1 71 2.6 N 11 13 6 7 1008.6 1008.2 0.0
27/07:30pm 15.2 11.6 8.4 64 3.5 N 17 20 9 11 1008.5 1008.1 0.0
27/07:00pm 16.7 13.1 8.4 58 4.3 NNW 17 22 9 12 1008.4 1008.0 0.0
27/06:30pm 16.3 10.6 6.7 53 4.8 NNW 26 33 14 18 1008.5 1008.1 0.0
27/06:00pm 17.0 11.4 7.1 52 5.0 NNW 26 35 14 19 1008.0 1007.6 0.0
27/05:30pm 17.6 11.9 8.2 54 4.8 NNW 28 35 15 19 1007.6 1007.2 0.0
27/05:00pm 17.5 11.9 8.6 56 4.6 NNW 28 35 15 19 1007.7 1007.3 0.0
27/04:30pm 18.3 12.7 8.6 53 5.1 NW 28 37 15 20 1007.5 1007.1 0.0
27/04:00pm 19.0 13.2 8.1 49 5.7 NNW 28 33 15 18 1007.7 1007.3 0.0
27/03:30pm 19.7 14.9 8.7 49 5.8 NNW 24 32 13 17 1008.1 1007.7 0.0
27/03:00pm 20.5 15.3 8.8 47 6.2 NNW 26 37 14 20 1008.5 1008.1 0.0
27/02:30pm 21.0 15.8 8.9 46 6.4 NNW 26 39 14 21 1008.6 1008.2 0.0
27/02:00pm 20.4 14.5 9.0 48 6.1 NNW 30 41 16 22 1008.7 1008.3 0.0
27/01:30pm 20.7 15.0 9.9 50 5.9 NNW 30 37 16 20 1008.7 1008.3 0.0
27/01:00pm 20.4 16.1 11.9 58 4.8 NNW 26 32 14 17 1009.3 1008.9 0.0
27/12:30pm 19.7 15.4 10.7 56 4.9 NNW 24 33 13 18 1009.2 1008.8 0.0
27/12:00pm 19.4 15.5 10.7 57 4.8 NW 22 32 12 17 1009.6 1009.2 0.0
27/11:30am 17.6 16.7 11.2 66 3.5 WNW 7 13 4 7 1009.9 1009.5 0.0
27/11:00am 16.5 15.4 10.8 69 3.1 S 7 11 4 6 1010.3 1009.9 0.0
27/10:30am 16.5 15.6 11.4 72 2.8 S 7 11 4 6 1010.7 1010.3 0.0
27/10:00am 15.4 14.3 10.6 73 2.6 SSE 7 11 4 6 1010.8 1010.4 0.0
27/09:30am 13.8 11.9 10.4 80 1.8 SSE 11 15 6 8 1010.6 1010.2 0.0
27/09:00am 13.0 10.2 10.0 82 1.6 SSE 15 19 8 10 1010.5 1010.1 0.2
27/08:30am 12.1 9.4 9.1 82 1.5 S 13 19 7 10 1010.5 1010.1 0.2
27/08:28am 12.1 9.4 9.1 82 1.5 S 13 17 7 9 1010.6 1010.2 0.2
27/08:11am 12.5 10.3 9.5 82 1.5 S 11 15 6 8 1010.7 1010.3 0.2
27/08:00am 12.9 10.1 8.4 74 2.3 SSE 13 17 7 9 1010.6 1010.2 0.2
27/07:30am 12.8 9.9 8.3 74 2.3 SSE 13 17 7 9 1010.3 1009.9 0.2
27/07:00am 12.6 9.7 8.1 74 2.2 S 13 17 7 9 1010.3 1009.9 0.2
27/06:30am 12.6 9.7 8.3 75 2.1 SSW 13 17 7 9 1010.1 1009.7 0.2
27/06:00am 12.7 10.3 8.6 76 2.1 S 11 19 6 10 1009.7 1009.3 0.2
27/05:30am 12.4 9.5 8.1 75 2.1 SSE 13 17 7 9 1009.5 1009.1 0.2
27/05:00am 12.7 8.9 7.6 71 2.5 SSE 17 22 9 12 1009.7 1009.3 0.2
27/04:30am 12.8 8.6 7.5 70 2.6 SSE 19 28 10 15 1009.8 1009.4 0.2
27/04:00am 12.8 9.0 7.5 70 2.6 SSE 17 20 9 11 1009.9 1009.5 0.2
27/03:30am 13.1 9.4 7.8 70 2.6 S 17 24 9 13 1010.1 1009.7 0.2
27/03:00am 13.1 9.0 8.0 71 2.5 SSE 19 24 10 13 1010.0 1009.6 0.2
27/02:30am 13.2 9.5 8.1 71 2.5 SSE 17 24 9 13 1010.2 1009.8 0.2
27/02:00am 13.2 9.2 8.1 71 2.6 S 19 35 10 19 1010.6 1010.2 0.2
27/01:30am 13.1 8.5 8.0 71 2.5 SSE 22 28 12 15 1010.7 1010.3 0.2
27/01:00am 13.1 8.5 8.2 72 2.5 S 22 33 12 18 1010.5 1010.1 0.2
27/12:30am 13.4 8.2 8.9 74 2.3 SSE 26 33 14 18 1010.4 1010.0 0.2
27/12:00am 13.9 9.1 8.9 72 2.6 SSE 24 32 13 17 1010.5 1010.1 0.2
 
Date/Time
EDT
Temp
°C
App
Temp
°C
Dew
Point
Rel
Hum
%
Delta-T
°C
Wind Press
QNH
hPa
Press
MSL
hPa
Rain
since 9 am
mm
Dir
 
Spd
km/h
Gust
km/h
Spd
kts
Gust
kts
26/11:30pm 13.9 9.2 9.3 74 2.4 SSE 24 35 13 19 1010.4 1010.0 0.2
26/11:00pm 13.8 7.6 9.3 74 2.3 SSE 32 41 17 22 1010.3 1009.9 0.2
26/10:30pm 13.8 8.0 9.5 75 2.2 SSE 30 41 16 22 1010.3 1009.9 0.2
26/10:00pm 14.2 9.2 9.6 74 2.4 SSE 26 35 14 19 1010.1 1009.7 0.2
26/09:30pm 15.0 9.4 10.2 73 2.5 SSE 30 39 16 21 1009.8 1009.4 0.2
26/09:00pm 15.8 10.8 10.8 72 2.7 SSE 28 39 15 21 1009.4 1009.0 0.2
26/08:30pm 16.5 12.0 11.4 72 2.8 SSE 26 32 14 17 1008.8 1008.4 0.2
26/08:00pm 17.8 13.7 11.4 66 3.5 SSE 24 39 13 21 1008.2 1007.8 0.2
26/07:30pm 20.2 17.5 13.4 65 3.9 NW 20 28 11 15 1007.3 1006.9 0.2
26/07:00pm 20.8 17.4 13.7 64 4.1 NW 24 30 13 16 1006.7 1006.2 0.2
26/06:30pm 22.3 18.9 13.6 58 5.1 NNW 24 28 13 15 1006.5 1006.0 0.2
26/06:00pm 21.3 17.7 13.0 59 4.8 NNW 24 30 13 16 1006.3 1005.8 0.2
26/05:30pm 23.9 20.7 11.2 44 7.2 NW 19 32 10 17 1006.2 1005.7 0.2
26/05:00pm 23.0 19.4 11.7 49 6.4 NNW 22 30 12 16 1006.2 1005.7 0.2
26/04:30pm 23.3 20.1 12.0 49 6.4 NNW 20 28 11 15 1006.2 1005.7 0.2
26/04:00pm 22.3 18.5 12.3 53 5.7 NNW 24 33 13 18 1006.4 1005.9 0.2
26/03:30pm 22.7 19.8 12.9 54 5.7 NNW 20 33 11 18 1006.5 1006.0 0.2
26/03:00pm 21.4 18.0 12.5 57 5.1 NNW 22 33 12 18 1006.8 1006.3 0.2
26/02:30pm 22.0 18.3 12.8 56 5.3 NNW 24 35 13 19 1006.9 1006.5 0.0
26/02:00pm 21.7 17.6 12.8 57 5.1 NW 26 39 14 21 1007.1 1006.7 0.0
26/01:30pm 21.4 18.2 13.1 59 4.8 NW 22 32 12 17 1007.4 1007.0 0.0
26/01:00pm 19.7 17.0 13.4 67 3.6 NW 20 32 11 17 1007.7 1007.3 0.0
26/12:30pm 19.1 16.7 12.6 66 3.7 WNW 17 22 9 12 1008.1 1007.7 0.0
26/12:00pm 18.6 15.8 14.3 76 2.5 NNW 22 28 12 15 1008.4 1008.0 0.0
26/11:30am 17.5 14.6 13.0 75 2.5 NNW 20 28 11 15 1008.7 1008.3 0.0
26/11:21am 17.8 15.3 14.1 79 2.1 NNW 20 28 11 15 1008.7 1008.3 0.0
26/11:00am 17.3 15.0 14.0 81 1.9 NW 19 24 10 13 1008.7 1008.3 0.0
26/10:36am 16.3 14.8 14.1 87 1.3 N 15 20 8 11 1008.8 1008.4 0.0
26/10:30am 16.3 15.1 14.0 86 1.3 N 13 20 7 11 1008.8 1008.4 0.0
26/10:17am 15.0 13.8 13.9 93 0.6 NNE 13 15 7 8 1008.8 1008.4 0.0
26/10:00am 14.8 13.7 14.2 96 0.3 NNE 13 15 7 8 1008.9 1008.5 0.0
26/09:53am 14.1 13.1 13.3 95 0.4 NNE 11 13 6 7 1009.0 1008.6 0.0
26/09:32am 13.6 12.8 12.8 95 0.4 NNE 9 13 5 7 1009.1 1008.7 0.0
26/09:30am 13.8 13.0 13.0 95 0.4 NNE 9 11 5 6 1009.1 1008.7 0.0
26/09:17am 13.5 13.0 12.6 94 0.5 N 7 9 4 5 1009.2 1008.8 0.0
26/09:00am 13.6 13.1 12.7 94 0.5 N 7 9 4 5 1009.2 1008.8 0.6
26/08:30am 13.4 12.5 12.6 95 0.4 W 9 9 5 5 1009.3 1008.9 0.6
26/08:00am 12.8 12.1 12.0 95 0.4 WNW 7 9 4 5 1009.2 1008.8 0.6

Other Formats:

Comma delimited format used in spreadsheet applications
http://www.bom.gov.au/fwo/IDT60801/IDT60801.95966.axf

JavaScript Object Notation format (JSON) in row-major order
http://www.bom.gov.au/fwo/IDT60801/IDT60801.95966.json